Atlantic Clover — 3FVD6 — position and weather

sailwx.info

Track history (hours):
 
Tides and Currents Weather Stations Pressure Air Temp Water Temp Dewpoint Dewpoint Depression Visibility Wind Speed Wind Dir Waves Ship Positions

Atlantic Clover

Last reported at 2017-Jun-19 09:12 UTC. Time now 2017-Jun-22 22:26 UTC.
Position N 01°54' E 102°20'.

Length 180 m; draft 8.1 m.

Type: Cargo ship. MMSI: 371263000.

Date/timePositionNaut miles runAvg speedWind from/ knotsBaromVisibWave heightAir tempDewpointWater temp
2017-Jun-19 09:12N 01°54' E 102°20'311.9
2017-Jun-19 08:57N 01°53' E 102°23'511.8
2017-Jun-19 08:31N 01°51' E 102°27'611.6
2017-Jun-19 08:00N 01°49' E 102°33'711.7
2017-Jun-19 07:25N 01°46' E 102°39'4812.8
2017-Jun-19 03:42N 01°19' E 103°18'313.5
2017-Jun-19 03:29N 01°17' E 103°21'612.9
2017-Jun-19 03:01N 01°14' E 103°26'712.9
2017-Jun-19 02:30N 01°13' E 103°32'612.3
2017-Jun-19 02:01N 01°11' E 103°38'611.8
2017-Jun-19 01:30N 01°09' E 103°44'510.0
2017-Jun-19 01:00N 01°11' E 103°48'4 8.7
2017-Jun-19 00:31N 01°12' E 103°52'5 9.5
2017-Jun-19 00:00N 01°14' E 103°57'611.2
2017-Jun-18 23:30N 01°16' E 104°02'611.3
2017-Jun-18 23:00N 01°16' E 104°08'1610.9
2017-Jun-18 21:33N 01°21' E 104°23'411.2
2017-Jun-18 21:12N 01°24' E 104°26'  
Track history (hours):
 
Tides and Currents Weather Stations Pressure Air Temp Water Temp Dewpoint Dewpoint Depression Visibility Wind Speed Wind Dir Waves Ship Positions

Atlantic Clover

Last reported at 2017-Jun-19 09:12 UTC. Time now 2017-Jun-22 22:26 UTC.
Position N 01°54' E 102°20'.

Length 180 m; draft 8.1 m.

Type: Cargo ship. MMSI: 371263000.

Date/timePositionNaut miles runAvg speedWind from/ knotsBaromVisibWave heightAir tempDewpointWater temp
2017-Jun-19 09:12N 01°54' E 102°20'311.9
2017-Jun-19 08:57N 01°53' E 102°23'511.8
2017-Jun-19 08:31N 01°51' E 102°27'611.6
2017-Jun-19 08:00N 01°49' E 102°33'711.7
2017-Jun-19 07:25N 01°46' E 102°39'4812.8
2017-Jun-19 03:42N 01°19' E 103°18'313.5
2017-Jun-19 03:29N 01°17' E 103°21'612.9
2017-Jun-19 03:01N 01°14' E 103°26'712.9
2017-Jun-19 02:30N 01°13' E 103°32'612.3
2017-Jun-19 02:01N 01°11' E 103°38'611.8
2017-Jun-19 01:30N 01°09' E 103°44'510.0
2017-Jun-19 01:00N 01°11' E 103°48'4 8.7
2017-Jun-19 00:31N 01°12' E 103°52'5 9.5
2017-Jun-19 00:00N 01°14' E 103°57'611.2
2017-Jun-18 23:30N 01°16' E 104°02'611.3
2017-Jun-18 23:00N 01°16' E 104°08'1610.9
2017-Jun-18 21:33N 01°21' E 104°23'411.2
2017-Jun-18 21:12N 01°24' E 104°26'  

Dump ship's entire track history